createdAt,value
2023-04-14T00:00:37.797Z,1.90
2023-04-14T00:03:04.902Z,2.22
2023-04-14T00:05:32.792Z,1.83
2023-04-14T00:07:59.725Z,1.77
2023-04-14T00:10:26.919Z,1.90
2023-04-14T00:12:55.333Z,2.15
2023-04-14T00:15:22.409Z,1.98
2023-04-14T00:17:49.561Z,2.10
2023-04-14T00:20:16.379Z,2.20
2023-04-14T00:22:43.137Z,2.30
2023-04-14T00:25:10.374Z,2.08
2023-04-14T00:27:37.081Z,1.88
2023-04-14T00:30:04.175Z,2.10
2023-04-14T00:32:30.946Z,2.35
2023-04-14T00:35:00.017Z,2.10
2023-04-14T00:37:26.962Z,2.47
2023-04-14T00:39:53.690Z,2.03
2023-04-14T00:42:20.441Z,2.10
2023-04-14T00:44:48.206Z,2.30
2023-04-14T00:47:16.216Z,2.78
2023-04-14T00:49:42.996Z,2.30
2023-04-14T00:52:10.393Z,2.38
2023-04-14T00:54:38.043Z,2.25
2023-04-14T00:57:05.872Z,2.25
2023-04-14T00:59:32.686Z,2.10
2023-04-14T01:02:00.047Z,2.20
2023-04-14T01:04:36.832Z,2.30
2023-04-14T01:07:07.562Z,2.28
2023-04-14T01:09:34.396Z,2.60
2023-04-14T01:12:07.294Z,2.10
2023-04-14T01:15:17.254Z,2.15
2023-04-14T01:17:43.941Z,2.40
2023-04-14T01:20:33.250Z,2.20
2023-04-14T01:23:07.291Z,2.30
2023-04-14T01:25:55.986Z,2.40
2023-04-14T01:28:43.721Z,2.20
2023-04-14T01:31:26.884Z,2.22
2023-04-14T01:34:31.389Z,2.55
2023-04-14T01:37:10.482Z,2.45
2023-04-14T01:39:41.571Z,2.03
2023-04-14T01:42:13.080Z,2.15
2023-04-14T01:44:41.467Z,2.05
2023-04-14T01:47:12.707Z,2.50
2023-04-14T01:49:41.580Z,2.20
2023-04-14T01:52:15.306Z,1.95
2023-04-14T01:54:43.754Z,1.95
2023-04-14T01:57:12.796Z,1.98
2023-04-14T01:59:42.263Z,2.10
2023-04-14T02:02:12.826Z,1.80
2023-04-14T02:04:41.588Z,1.73
2023-04-14T02:07:12.555Z,1.70
2023-04-14T02:09:41.920Z,2.20
2023-04-14T02:12:10.878Z,1.80
2023-04-14T02:14:40.820Z,1.92
2023-04-14T02:17:10.945Z,2.03
2023-04-14T02:19:38.056Z,1.75
2023-04-14T02:22:05.014Z,1.80
2023-04-14T02:24:31.887Z,1.77
2023-04-14T02:27:11.695Z,2.10
2023-04-14T02:29:42.459Z,1.73
2023-04-14T02:32:16.826Z,1.48
2023-04-14T02:35:10.669Z,1.90
2023-04-14T02:37:41.506Z,1.80
2023-04-14T02:40:17.466Z,1.63
2023-04-14T02:42:48.167Z,2.00
2023-04-14T02:45:21.866Z,1.60
2023-04-14T02:47:55.335Z,2.40
2023-04-14T02:50:23.981Z,1.90
2023-04-14T02:52:52.450Z,1.90
2023-04-14T02:55:20.875Z,2.00
2023-04-14T02:57:50.029Z,2.05
2023-04-14T03:00:17.718Z,2.00
2023-04-14T03:02:47.267Z,2.22
2023-04-14T03:05:14.585Z,2.00
2023-04-14T03:07:44.111Z,2.10
2023-04-14T03:10:12.441Z,2.20
2023-04-14T03:12:42.164Z,2.60
2023-04-14T03:15:10.849Z,2.20
2023-04-14T03:17:38.888Z,2.40
2023-04-14T03:20:06.217Z,2.20
2023-04-14T03:22:38.919Z,2.20
2023-04-14T03:25:06.794Z,1.95
2023-04-14T03:27:34.152Z,2.20
2023-04-14T03:30:04.629Z,2.10
2023-04-14T03:32:36.910Z,2.28
2023-04-14T03:35:04.833Z,2.00
2023-04-14T03:37:36.929Z,2.10
2023-04-14T03:40:06.267Z,2.10
2023-04-14T03:42:35.454Z,2.40
2023-04-14T03:45:03.608Z,2.65
2023-04-14T03:47:31.716Z,2.80
2023-04-14T03:50:01.265Z,2.45
2023-04-14T03:52:31.256Z,2.47
2023-04-14T03:55:03.426Z,2.40
2023-04-14T03:57:32.573Z,2.40
2023-04-14T04:00:01.923Z,2.45
2023-04-14T04:02:30.451Z,2.40
2023-04-14T04:04:58.694Z,2.55
2023-04-14T04:07:28.597Z,3.03
2023-04-14T04:09:56.985Z,2.85
2023-04-14T04:12:25.911Z,2.97
2023-04-14T04:14:52.660Z,3.42
2023-04-14T04:17:23.536Z,3.70
2023-04-14T04:19:51.575Z,3.65
2023-04-14T04:22:21.890Z,3.90
2023-04-14T04:27:27.087Z,3.22
2023-04-14T04:29:54.812Z,3.58
2023-04-14T04:32:22.380Z,3.85
2023-04-14T04:34:51.053Z,3.75
2023-04-14T04:37:19.358Z,3.60
2023-04-14T04:39:47.984Z,3.65
2023-04-14T04:42:14.730Z,4.00
2023-04-14T04:44:41.579Z,3.78
2023-04-14T04:47:09.345Z,4.75
2023-04-14T04:49:36.099Z,4.63
2023-04-14T04:52:02.830Z,4.88
2023-04-14T04:54:29.577Z,5.05
2023-04-14T04:56:57.613Z,5.15
2023-04-14T04:59:24.932Z,5.63
2023-04-14T05:01:51.929Z,5.80
2023-04-14T05:04:18.850Z,5.82
2023-04-14T05:06:45.750Z,6.25
2023-04-14T05:09:12.495Z,6.68
2023-04-14T05:11:39.446Z,6.07
2023-04-14T05:14:06.431Z,6.28
2023-04-14T05:16:33.543Z,6.68
2023-04-14T05:19:00.735Z,7.03
2023-04-14T05:21:27.700Z,7.03
2023-04-14T05:23:54.440Z,6.47
2023-04-14T05:26:44.681Z,7.03
2023-04-14T05:29:09.034Z,7.43
2023-04-14T05:31:35.994Z,7.47
2023-04-14T05:34:03.005Z,7.57
2023-04-14T05:36:29.967Z,7.43
2023-04-14T05:38:56.949Z,6.70
2023-04-14T05:41:23.702Z,7.63
2023-04-14T05:43:50.746Z,6.88
2023-04-14T05:46:17.818Z,7.20
2023-04-14T05:48:44.643Z,7.45
2023-04-14T05:51:11.443Z,7.55
2023-04-14T05:53:38.236Z,7.43
2023-04-14T05:56:05.268Z,7.43
2023-04-14T05:58:31.981Z,7.97
2023-04-14T06:00:58.759Z,8.18
2023-04-14T06:03:25.742Z,7.95
2023-04-14T06:05:53.152Z,7.80
2023-04-14T06:08:20.719Z,8.63
2023-04-14T06:10:47.546Z,7.63
2023-04-14T06:13:15.339Z,8.07
2023-04-14T06:15:42.130Z,8.18
2023-04-14T06:18:08.882Z,8.52
2023-04-14T06:20:36.163Z,8.05
2023-04-14T06:23:03.066Z,8.07
2023-04-14T06:25:29.863Z,7.72
2023-04-14T06:27:56.985Z,7.65
2023-04-14T06:30:24.303Z,7.60
2023-04-14T06:32:54.130Z,7.68
2023-04-14T06:35:32.306Z,7.80
2023-04-14T06:38:00.385Z,7.22
2023-04-14T06:40:27.242Z,6.90
2023-04-14T06:42:53.933Z,7.72
2023-04-14T06:45:20.826Z,7.20
2023-04-14T06:47:47.626Z,6.72
2023-04-14T06:50:14.503Z,7.60
2023-04-14T06:52:41.322Z,7.15
2023-04-14T06:55:08.471Z,7.18
2023-04-14T06:57:35.374Z,6.07
2023-04-14T07:00:04.186Z,6.20
2023-04-14T07:02:31.196Z,5.60
2023-04-14T07:04:58.038Z,5.50
2023-04-14T07:07:24.933Z,5.78
2023-04-14T07:09:51.942Z,5.25
2023-04-14T07:12:18.919Z,5.35
2023-04-14T07:14:51.889Z,6.07
2023-04-14T07:17:19.698Z,5.15
2023-04-14T07:19:46.629Z,5.25
2023-04-14T07:22:13.383Z,5.78
2023-04-14T07:24:40.575Z,5.70
2023-04-14T07:27:07.434Z,5.40
2023-04-14T07:29:34.958Z,5.10
2023-04-14T07:32:02.312Z,4.47
2023-04-14T07:34:29.031Z,4.88
2023-04-14T07:36:56.355Z,4.85
2023-04-14T07:39:23.619Z,4.47
2023-04-14T07:41:50.699Z,4.85
2023-04-14T07:44:17.464Z,4.80
2023-04-14T07:46:44.445Z,4.88
2023-04-14T07:49:11.459Z,4.25
2023-04-14T07:51:38.296Z,4.72
2023-04-14T07:54:06.442Z,4.40
2023-04-14T07:56:33.321Z,4.38
2023-04-14T07:59:00.529Z,4.30
2023-04-14T08:01:27.509Z,4.60
2023-04-14T08:03:54.651Z,4.65
2023-04-14T08:06:21.571Z,4.20
2023-04-14T08:08:48.313Z,3.85
2023-04-14T08:11:15.362Z,4.60
2023-04-14T08:13:43.158Z,4.22
2023-04-14T08:16:10.105Z,4.05
2023-04-14T08:18:37.342Z,3.75
2023-04-14T08:21:04.278Z,3.78
2023-04-14T08:23:31.354Z,4.10
2023-04-14T08:25:58.172Z,3.92
2023-04-14T08:28:24.891Z,4.30
2023-04-14T08:30:51.625Z,4.35
2023-04-14T08:33:18.559Z,4.15
2023-04-14T08:35:45.397Z,4.07
2023-04-14T08:38:12.728Z,4.03
2023-04-14T08:40:43.966Z,4.88
2023-04-14T08:43:13.711Z,4.68
2023-04-14T08:45:43.469Z,4.18
2023-04-14T08:48:12.038Z,3.85
2023-04-14T08:50:46.857Z,3.90
2023-04-14T08:53:13.978Z,3.53
2023-04-14T08:55:41.843Z,3.88
2023-04-14T08:58:11.778Z,3.92
2023-04-14T09:00:40.194Z,3.58
2023-04-14T09:03:09.170Z,3.67
2023-04-14T09:05:36.585Z,3.92
2023-04-14T09:08:04.192Z,4.20
2023-04-14T09:10:31.864Z,3.60
2023-04-14T09:12:58.839Z,3.80
2023-04-14T09:15:28.789Z,3.40
2023-04-14T09:20:38.355Z,3.97
2023-04-14T09:23:09.771Z,3.42
2023-04-14T09:25:38.874Z,3.63
2023-04-14T09:28:05.734Z,3.20
2023-04-14T09:30:33.107Z,3.00
2023-04-14T09:33:03.855Z,3.22
2023-04-14T09:35:47.609Z,2.72
2023-04-14T09:38:16.018Z,2.60
2023-04-14T09:40:47.426Z,2.85
2023-04-14T09:43:27.570Z,3.00
2023-04-14T09:45:55.650Z,3.30
2023-04-14T09:48:22.685Z,3.50
2023-04-14T09:51:06.845Z,2.92
2023-04-14T09:53:36.054Z,3.53
2023-04-14T09:56:10.662Z,3.60
2023-04-14T09:58:41.999Z,3.53
2023-04-14T10:01:23.242Z,3.10
2023-04-14T10:03:50.659Z,3.00
2023-04-14T10:06:19.364Z,3.30
2023-04-14T10:08:51.582Z,3.30
2023-04-14T10:11:22.893Z,3.20
2023-04-14T10:13:51.429Z,2.90
2023-04-14T10:16:18.336Z,3.22
2023-04-14T10:18:45.638Z,3.00
2023-04-14T10:21:14.015Z,3.30
2023-04-14T10:23:42.330Z,2.70
2023-04-14T10:26:11.376Z,2.90
2023-04-14T10:28:40.988Z,3.42
2023-04-14T10:31:13.697Z,3.20
2023-04-14T10:33:42.027Z,3.00
2023-04-14T10:36:09.761Z,2.55
2023-04-14T10:38:44.550Z,2.63
2023-04-14T10:41:12.323Z,2.60
2023-04-14T10:43:40.349Z,2.60
2023-04-14T10:46:08.399Z,2.70
2023-04-14T10:48:39.833Z,2.83
2023-04-14T10:51:09.698Z,2.80
2023-04-14T10:53:50.062Z,2.92
2023-04-14T10:58:55.746Z,2.50
2023-04-14T11:01:31.503Z,2.40
2023-04-14T11:04:23.386Z,2.47
2023-04-14T11:06:52.325Z,2.38
2023-04-14T11:09:37.345Z,2.78
2023-04-14T11:12:21.974Z,2.70
2023-04-14T11:14:48.741Z,2.58
2023-04-14T11:17:23.095Z,2.50
2023-04-14T11:19:55.200Z,2.80
2023-04-14T11:22:41.709Z,2.75
2023-04-14T11:25:12.138Z,2.83
2023-04-14T11:30:08.521Z,2.78
2023-04-14T11:32:48.455Z,2.45
2023-04-14T11:35:16.393Z,2.83
2023-04-14T11:37:44.187Z,2.45
2023-04-14T11:40:12.415Z,3.00
2023-04-14T11:42:46.524Z,2.63
2023-04-14T11:45:15.699Z,2.40
2023-04-14T11:48:06.900Z,2.30
2023-04-14T11:50:38.692Z,2.72
2023-04-14T11:53:13.780Z,2.30
2023-04-14T11:55:48.088Z,2.50
2023-04-14T11:58:20.550Z,2.50
2023-04-14T12:00:49.882Z,2.50
2023-04-14T12:03:17.233Z,2.10
2023-04-14T12:05:44.845Z,2.08
2023-04-14T12:08:12.653Z,2.10
2023-04-14T12:10:43.628Z,2.10
2023-04-14T12:13:11.725Z,1.90
2023-04-14T12:15:40.676Z,1.77
2023-04-14T12:18:09.901Z,2.10
2023-04-14T12:20:51.470Z,2.60
2023-04-14T12:23:18.399Z,2.28
2023-04-14T12:25:45.392Z,2.25
2023-04-14T12:28:19.529Z,2.40
2023-04-14T12:30:54.321Z,2.42
2023-04-14T12:33:26.155Z,2.42
2023-04-14T12:35:53.628Z,2.13
2023-04-14T12:38:28.034Z,1.60
2023-04-14T12:40:56.596Z,2.13
2023-04-14T12:43:37.093Z,1.98
2023-04-14T12:46:04.709Z,2.42
2023-04-14T12:48:45.758Z,1.90
2023-04-14T12:51:17.306Z,1.90
2023-04-14T12:53:46.501Z,1.77
2023-04-14T12:56:13.229Z,1.77
2023-04-14T12:58:47.319Z,1.70
2023-04-14T13:01:17.151Z,1.80
2023-04-14T13:03:50.328Z,1.90
2023-04-14T13:06:19.690Z,2.03
2023-04-14T13:08:48.376Z,2.00
2023-04-14T13:11:16.416Z,1.70
2023-04-14T13:13:45.420Z,1.85
2023-04-14T13:16:22.738Z,2.00
2023-04-14T13:18:53.936Z,1.52
2023-04-14T13:21:20.692Z,1.60
2023-04-14T13:23:47.469Z,1.25
2023-04-14T13:26:14.283Z,1.33
2023-04-14T13:28:41.369Z,1.20
2023-04-14T13:31:11.662Z,1.10
2023-04-14T13:33:38.425Z,0.88
2023-04-14T13:36:05.370Z,1.25
2023-04-14T13:38:32.233Z,1.17
2023-04-14T13:40:59.251Z,1.17
2023-04-14T13:43:26.260Z,1.00
2023-04-14T13:45:57.656Z,1.02
2023-04-14T13:48:24.746Z,0.90
2023-04-14T13:50:52.198Z,0.70
2023-04-14T13:53:18.942Z,0.90
2023-04-14T13:55:45.910Z,0.93
2023-04-14T13:58:12.653Z,0.90
2023-04-14T14:00:39.372Z,1.00
2023-04-14T14:03:06.288Z,1.10
2023-04-14T14:05:33.141Z,1.10
2023-04-14T14:07:59.905Z,1.23
2023-04-14T14:10:26.606Z,1.30
2023-04-14T14:12:53.926Z,1.25
2023-04-14T14:15:20.710Z,1.30
2023-04-14T14:17:47.628Z,1.33
2023-04-14T14:20:14.472Z,1.40
2023-04-14T14:22:41.182Z,1.30
2023-04-14T14:25:19.283Z,1.48
2023-04-14T14:27:47.768Z,1.60
2023-04-14T14:30:14.578Z,1.50
2023-04-14T14:32:41.341Z,1.45
2023-04-14T14:35:08.544Z,1.52
2023-04-14T14:37:35.347Z,1.63
2023-04-14T14:40:02.395Z,1.80
2023-04-14T14:42:29.166Z,1.83
2023-04-14T14:44:55.959Z,1.80
2023-04-14T14:47:25.006Z,2.00
2023-04-14T14:49:59.644Z,1.83
2023-04-14T14:52:36.559Z,1.90
2023-04-14T14:55:04.265Z,2.20
2023-04-14T14:57:31.255Z,2.00
2023-04-14T14:59:58.618Z,1.90
2023-04-14T15:02:25.732Z,1.85
2023-04-14T15:04:53.252Z,2.13
2023-04-14T15:07:20.676Z,2.13
2023-04-14T15:09:47.439Z,2.20
2023-04-14T15:12:14.185Z,2.17
2023-04-14T15:14:40.921Z,2.08
2023-04-14T15:17:08.122Z,2.20
2023-04-14T15:19:34.836Z,2.22
2023-04-14T15:22:01.636Z,2.22
2023-04-14T15:24:28.380Z,2.80
2023-04-14T15:26:55.122Z,2.22
2023-04-14T15:29:24.874Z,2.58
2023-04-14T15:31:51.782Z,2.30
2023-04-14T15:34:18.751Z,2.20
2023-04-14T15:36:45.784Z,2.50
2023-04-14T15:39:12.486Z,2.45
2023-04-14T15:41:39.223Z,2.38
2023-04-14T15:44:06.138Z,2.40
2023-04-14T15:46:33.008Z,2.53
2023-04-14T15:48:59.976Z,2.38
2023-04-14T15:51:26.896Z,2.15
2023-04-14T15:53:53.739Z,1.83
2023-04-14T15:56:23.039Z,1.77
2023-04-14T15:58:50.547Z,1.60
2023-04-14T16:01:17.522Z,1.50
2023-04-14T16:03:44.758Z,1.50
2023-04-14T16:06:11.760Z,1.75
2023-04-14T16:08:38.514Z,2.08
2023-04-14T16:11:05.352Z,1.80
2023-04-14T16:13:32.128Z,1.75
2023-04-14T16:15:58.999Z,1.70
2023-04-14T16:18:25.845Z,1.92
2023-04-14T16:20:53.471Z,1.98
2023-04-14T16:23:20.497Z,2.08
2023-04-14T16:25:50.505Z,1.85
2023-04-14T16:28:17.304Z,1.90
2023-04-14T16:30:44.087Z,1.58
2023-04-14T16:33:11.043Z,1.80
2023-04-14T16:35:37.857Z,1.90
2023-04-14T16:38:08.322Z,1.80
2023-04-14T16:40:36.486Z,1.98
2023-04-14T16:43:04.199Z,2.40
2023-04-14T16:45:31.920Z,2.30
2023-04-14T16:47:58.834Z,2.00
2023-04-14T16:50:25.660Z,2.30
2023-04-14T16:52:52.441Z,2.30
2023-04-14T16:55:19.213Z,2.38
2023-04-14T16:57:46.136Z,2.53
2023-04-14T17:00:13.795Z,2.10
2023-04-14T17:02:43.670Z,2.25
2023-04-14T17:05:13.005Z,2.38
2023-04-14T17:07:40.055Z,2.47
2023-04-14T17:10:07.220Z,2.63
2023-04-14T17:12:34.552Z,2.78
2023-04-14T17:15:01.558Z,2.80
2023-04-14T17:17:28.450Z,2.65
2023-04-14T17:19:56.731Z,2.58
2023-04-14T17:22:23.969Z,2.35
2023-04-14T17:24:51.953Z,2.00
2023-04-14T17:27:18.966Z,1.90
2023-04-14T17:29:46.279Z,1.70
2023-04-14T17:32:13.415Z,1.42
2023-04-14T17:34:40.452Z,1.45
2023-04-14T17:37:07.286Z,1.60
2023-04-14T17:39:34.176Z,1.25
2023-04-14T17:42:01.435Z,1.77
2023-04-14T17:44:33.411Z,2.00
2023-04-14T17:47:11.517Z,2.00
2023-04-14T17:49:38.981Z,1.98
2023-04-14T17:52:07.753Z,1.88
2023-04-14T17:54:34.902Z,2.28
2023-04-14T17:57:01.995Z,2.42
2023-04-14T17:59:28.884Z,2.75
2023-04-14T18:01:55.717Z,1.90
2023-04-14T18:04:22.948Z,2.10
2023-04-14T18:06:50.935Z,2.10
2023-04-14T18:09:17.851Z,3.92
2023-04-14T18:11:44.620Z,2.40
2023-04-14T18:14:11.333Z,2.08
2023-04-14T18:16:39.024Z,1.60
2023-04-14T18:19:06.052Z,2.05
2023-04-14T18:21:32.813Z,2.00
2023-04-14T18:26:30.043Z,2.00
2023-04-14T18:28:57.289Z,2.15
2023-04-14T18:31:24.045Z,2.97
2023-04-14T18:33:51.405Z,2.42
2023-04-14T18:36:18.124Z,2.13
2023-04-14T18:38:45.043Z,2.38
2023-04-14T18:41:11.817Z,2.33
2023-04-14T18:43:38.579Z,2.65
2023-04-14T18:46:05.335Z,2.38
2023-04-14T18:48:32.276Z,2.30
2023-04-14T18:51:02.524Z,2.28
2023-04-14T18:55:56.181Z,2.30
2023-04-14T18:58:23.799Z,2.22
2023-04-14T19:00:51.433Z,2.22
2023-04-14T19:03:18.565Z,2.00
2023-04-14T19:05:45.391Z,2.13
2023-04-14T19:08:12.082Z,1.92
2023-04-14T19:10:39.776Z,2.00
2023-04-14T19:13:06.605Z,2.10
2023-04-14T19:15:33.548Z,2.10
2023-04-14T19:18:01.366Z,3.00
2023-04-14T19:20:28.162Z,3.15
2023-04-14T19:22:54.878Z,3.25
2023-04-14T19:25:22.339Z,2.90
2023-04-14T19:27:49.335Z,3.08
2023-04-14T19:30:16.163Z,2.97
2023-04-14T19:32:43.014Z,2.75
2023-04-14T19:35:10.734Z,2.72
2023-04-14T19:37:38.358Z,2.38
2023-04-14T19:40:06.733Z,2.55
2023-04-14T19:42:33.920Z,2.67
2023-04-14T19:45:01.116Z,2.70
2023-04-14T19:47:28.004Z,2.83
2023-04-14T19:49:55.225Z,2.70
2023-04-14T19:52:22.399Z,2.70
2023-04-14T19:54:49.733Z,2.78
2023-04-14T19:57:16.857Z,2.85
2023-04-14T19:59:44.294Z,3.03
2023-04-14T20:02:13.053Z,2.90
2023-04-14T20:04:40.541Z,2.83
2023-04-14T20:07:07.642Z,2.78
2023-04-14T20:09:34.693Z,3.10
2023-04-14T20:12:02.363Z,3.35
2023-04-14T20:14:29.372Z,2.60
2023-04-14T20:16:56.632Z,3.20
2023-04-14T20:19:24.031Z,3.10
2023-04-14T20:21:51.041Z,3.35
2023-04-14T20:24:17.943Z,2.90
2023-04-14T20:26:45.085Z,3.17
2023-04-14T20:29:12.372Z,4.15
2023-04-14T20:31:39.729Z,4.05
2023-04-14T20:34:06.497Z,4.03
2023-04-14T20:36:35.922Z,3.75
2023-04-14T20:39:07.098Z,3.88
2023-04-14T20:41:33.948Z,3.40
2023-04-14T20:44:01.607Z,3.53
2023-04-14T20:46:28.780Z,3.58
2023-04-14T20:48:56.629Z,3.55
2023-04-14T20:51:23.598Z,3.20
2023-04-14T20:53:50.862Z,3.08
2023-04-14T20:56:17.859Z,3.60
2023-04-14T20:58:45.547Z,3.20
2023-04-14T21:01:12.574Z,3.47
2023-04-14T21:03:40.174Z,3.38
2023-04-14T21:06:07.086Z,3.50
2023-04-14T21:08:33.803Z,3.80
2023-04-14T21:11:16.157Z,3.50
2023-04-14T21:15:31.453Z,3.38
2023-04-14T21:16:31.010Z,3.40
2023-04-14T21:18:57.762Z,2.97
2023-04-14T21:21:24.656Z,2.85
2023-04-14T21:23:51.469Z,2.95
2023-04-14T21:26:18.510Z,3.15
2023-04-14T21:28:45.697Z,3.00
2023-04-14T21:31:12.520Z,3.40
2023-04-14T21:33:41.617Z,3.38
2023-04-14T21:36:11.262Z,3.22
2023-04-14T21:38:39.151Z,3.53
2023-04-14T21:41:07.828Z,2.95
2023-04-14T21:43:34.941Z,2.95
2023-04-14T21:46:01.828Z,3.35
2023-04-14T21:48:28.777Z,3.28
2023-04-14T21:50:55.498Z,3.40
2023-04-14T21:53:22.653Z,3.28
2023-04-14T21:56:08.631Z,2.85
2023-04-14T21:58:36.665Z,2.58
2023-04-14T22:01:03.672Z,2.63
2023-04-14T22:03:30.866Z,2.70
2023-04-14T22:05:57.639Z,3.08
2023-04-14T22:08:24.433Z,2.90
2023-04-14T22:10:52.670Z,2.78
2023-04-14T22:13:19.358Z,2.63
2023-04-14T22:15:46.766Z,2.60
2023-04-14T22:18:13.480Z,2.70
2023-04-14T22:20:40.298Z,2.70
2023-04-14T22:23:07.298Z,2.83
2023-04-14T22:25:35.232Z,2.53
2023-04-14T22:28:01.963Z,2.70
2023-04-14T22:30:29.882Z,2.85
2023-04-14T22:32:57.372Z,2.70
2023-04-14T22:35:24.285Z,2.83
2023-04-14T22:37:51.708Z,2.78
2023-04-14T22:40:18.443Z,2.90
2023-04-14T22:42:45.325Z,2.88
2023-04-14T22:45:12.269Z,2.90
2023-04-14T22:47:39.054Z,2.75
2023-04-14T22:50:06.956Z,3.13
2023-04-14T22:52:33.783Z,3.10
2023-04-14T22:55:00.632Z,3.00
2023-04-14T22:57:27.606Z,2.67
2023-04-14T22:59:54.382Z,2.80
2023-04-14T23:02:21.988Z,2.50
2023-04-14T23:04:48.890Z,2.33
2023-04-14T23:07:15.681Z,2.72
2023-04-14T23:09:42.556Z,2.60
2023-04-14T23:12:09.262Z,2.40
2023-04-14T23:14:36.377Z,2.40
2023-04-14T23:17:03.159Z,2.40
2023-04-14T23:19:29.936Z,2.42
2023-04-14T23:21:56.908Z,2.35
2023-04-14T23:24:23.611Z,2.20
2023-04-14T23:26:50.336Z,2.70
2023-04-14T23:29:17.121Z,2.33
2023-04-14T23:31:43.972Z,2.88
2023-04-14T23:34:11.070Z,2.45
2023-04-14T23:36:37.977Z,2.30
2023-04-14T23:39:05.536Z,3.05
2023-04-14T23:41:32.377Z,2.90
2023-04-14T23:43:59.214Z,2.60
2023-04-14T23:46:26.446Z,2.80
2023-04-14T23:48:53.393Z,2.53
2023-04-14T23:51:21.263Z,2.38
2023-04-14T23:53:49.169Z,2.28
2023-04-14T23:56:16.380Z,2.40
2023-04-14T23:58:43.230Z,2.40
